createdAt,value
2023-04-10T00:00:05.690Z,100961.88
2023-04-10T00:03:09.152Z,100961.94
2023-04-10T00:06:12.798Z,100954.28
2023-04-10T00:09:16.299Z,100952.63
2023-04-10T00:12:19.112Z,100956.84
2023-04-10T00:15:22.091Z,100951.53
2023-04-10T00:18:27.641Z,100949.94
2023-04-10T00:21:30.586Z,100952.53
2023-04-10T00:24:33.814Z,100942.41
2023-04-10T00:27:37.737Z,100948.28
2023-04-10T00:30:41.237Z,100941.69
2023-04-10T00:33:44.729Z,100936.72
2023-04-10T00:36:51.434Z,100941.00
2023-04-10T00:39:54.810Z,100935.09
2023-04-10T00:42:57.815Z,100937.50
2023-04-10T00:46:01.246Z,100931.72
2023-04-10T00:49:03.901Z,100929.38
2023-04-10T00:52:07.181Z,100923.53
2023-04-10T00:55:11.028Z,100921.97
2023-04-10T00:58:15.005Z,100918.56
2023-04-10T01:01:18.484Z,100925.50
2023-04-10T01:04:22.558Z,100923.84
2023-04-10T01:07:43.962Z,100926.47
2023-04-10T01:10:53.204Z,100921.41
2023-04-10T01:14:05.210Z,100918.84
2023-04-10T01:17:19.346Z,100917.75
2023-04-10T01:20:26.261Z,100913.47
2023-04-10T01:23:47.824Z,100917.00
2023-04-10T01:26:57.496Z,100911.69
2023-04-10T01:30:02.832Z,100914.25
2023-04-10T01:33:09.693Z,100914.94
2023-04-10T01:36:13.817Z,100911.59
2023-04-10T01:39:20.029Z,100913.41
2023-04-10T01:42:24.040Z,100906.69
2023-04-10T01:45:29.018Z,100909.31
2023-04-10T01:48:32.681Z,100911.84
2023-04-10T01:51:37.103Z,100913.66
2023-04-10T01:54:40.291Z,100913.78
2023-04-10T01:57:43.086Z,100910.12
2023-04-10T02:00:46.293Z,100909.25
2023-04-10T02:03:49.946Z,100915.41
2023-04-10T02:07:08.789Z,100909.78
2023-04-10T02:10:20.147Z,100906.56
2023-04-10T02:13:24.214Z,100909.19
2023-04-10T02:16:28.401Z,100909.09
2023-04-10T02:19:32.884Z,100908.47
2023-04-10T02:22:37.185Z,100915.63
2023-04-10T02:25:40.891Z,100906.41
2023-04-10T02:28:44.084Z,100907.34
2023-04-10T02:31:48.514Z,100901.28
2023-04-10T02:34:51.355Z,100907.28
2023-04-10T02:37:54.340Z,100909.72
2023-04-10T02:40:57.219Z,100905.63
2023-04-10T02:44:00.196Z,100909.25
2023-04-10T02:47:03.476Z,100896.50
2023-04-10T02:50:06.400Z,100898.06
2023-04-10T02:53:09.550Z,100890.47
2023-04-10T02:56:13.412Z,100887.19
2023-04-10T02:59:16.481Z,100892.09
2023-04-10T03:02:19.246Z,100879.44
2023-04-10T03:05:22.132Z,100882.25
2023-04-10T03:08:25.453Z,100874.63
2023-04-10T03:11:28.528Z,100870.41
2023-04-10T03:14:31.250Z,100870.41
2023-04-10T03:17:33.805Z,100874.06
2023-04-10T03:20:37.746Z,100876.75
2023-04-10T03:23:40.966Z,100872.47
2023-04-10T03:26:43.603Z,100883.59
2023-04-10T03:29:46.819Z,100877.09
2023-04-10T03:32:49.764Z,100880.87
2023-04-10T03:35:54.301Z,100887.50
2023-04-10T03:38:57.274Z,100879.31
2023-04-10T03:42:00.424Z,100874.22
2023-04-10T03:45:07.201Z,100881.94
2023-04-10T03:48:10.813Z,100877.63
2023-04-10T03:51:13.870Z,100882.66
2023-04-10T03:54:16.687Z,100888.81
2023-04-10T03:57:21.635Z,100888.22
2023-04-10T04:00:25.492Z,100893.12
2023-04-10T04:03:28.898Z,100895.50
2023-04-10T04:06:31.733Z,100887.81
2023-04-10T04:09:34.793Z,100894.78
2023-04-10T04:12:38.121Z,100898.00
2023-04-10T04:15:41.367Z,100896.34
2023-04-10T04:18:43.901Z,100890.25
2023-04-10T04:21:46.954Z,100899.78
2023-04-10T04:24:50.804Z,100899.72
2023-04-10T04:27:53.356Z,100907.34
2023-04-10T04:30:56.181Z,100899.62
2023-04-10T04:33:59.669Z,100901.31
2023-04-10T04:37:03.656Z,100902.13
2023-04-10T04:40:06.906Z,100908.94
2023-04-10T04:43:09.876Z,100905.31
2023-04-10T04:46:12.650Z,100908.37
2023-04-10T04:49:16.619Z,100913.44
2023-04-10T04:52:19.160Z,100916.31
2023-04-10T04:55:22.030Z,100929.81
2023-04-10T04:58:25.856Z,100922.50
2023-04-10T05:01:28.251Z,100931.06
2023-04-10T05:04:31.085Z,100928.97
2023-04-10T05:07:34.208Z,100933.59
2023-04-10T05:10:38.874Z,100940.00
2023-04-10T05:13:42.099Z,100941.13
2023-04-10T05:16:44.941Z,100937.28
2023-04-10T05:19:47.781Z,100951.13
2023-04-10T05:22:51.179Z,100958.87
2023-04-10T05:25:53.998Z,100959.78
2023-04-10T05:28:56.756Z,100957.59
2023-04-10T05:31:59.424Z,100952.13
2023-04-10T05:35:02.254Z,100957.28
2023-04-10T05:38:05.631Z,100957.16
2023-04-10T05:41:09.111Z,100950.19
2023-04-10T05:44:12.661Z,100965.75
2023-04-10T05:47:16.075Z,100961.91
2023-04-10T05:50:19.072Z,100963.38
2023-04-10T05:53:22.525Z,100962.78
2023-04-10T05:56:26.123Z,100965.69
2023-04-10T05:59:28.855Z,100963.81
2023-04-10T06:02:31.778Z,100965.75
2023-04-10T06:05:35.088Z,100964.44
2023-04-10T06:08:37.818Z,100970.88
2023-04-10T06:11:41.016Z,100970.03
2023-04-10T06:14:43.755Z,100973.38
2023-04-10T06:17:47.014Z,100978.66
2023-04-10T06:20:49.696Z,100980.78
2023-04-10T06:23:52.762Z,100986.59
2023-04-10T06:26:57.662Z,100983.50
2023-04-10T06:30:01.270Z,100976.41
2023-04-10T06:33:03.737Z,100981.81
2023-04-10T06:36:07.467Z,100988.72
2023-04-10T06:39:10.243Z,100989.03
2023-04-10T06:42:12.723Z,100995.41
2023-04-10T06:45:15.765Z,100993.25
2023-04-10T06:48:18.815Z,101001.88
2023-04-10T06:51:21.796Z,100998.88
2023-04-10T06:54:24.461Z,101006.37
2023-04-10T06:57:27.267Z,101002.13
2023-04-10T07:00:31.464Z,101000.31
2023-04-10T07:03:35.271Z,101000.75
2023-04-10T07:06:38.289Z,100991.81
2023-04-10T07:09:41.799Z,100993.88
2023-04-10T07:12:45.039Z,100998.47
2023-04-10T07:15:48.201Z,100994.88
2023-04-10T07:18:51.548Z,101001.00
2023-04-10T07:21:54.376Z,101005.03
2023-04-10T07:24:57.255Z,100994.25
2023-04-10T07:28:00.228Z,100998.56
2023-04-10T07:31:03.649Z,100993.41
2023-04-10T07:34:07.048Z,100990.94
2023-04-10T07:37:09.992Z,100989.22
2023-04-10T07:40:13.097Z,100977.59
2023-04-10T07:43:16.225Z,100963.59
2023-04-10T07:46:19.583Z,100957.47
2023-04-10T07:49:22.368Z,100960.78
2023-04-10T07:52:25.307Z,100953.31
2023-04-10T07:55:28.156Z,100951.38
2023-04-10T07:58:32.635Z,100946.69
2023-04-10T08:01:36.584Z,100943.91
2023-04-10T08:04:39.925Z,100944.22
2023-04-10T08:07:42.905Z,100948.38
2023-04-10T08:10:45.821Z,100945.37
2023-04-10T08:13:48.827Z,100940.81
2023-04-10T08:16:51.818Z,100939.06
2023-04-10T08:19:54.775Z,100941.22
2023-04-10T08:23:03.075Z,100944.34
2023-04-10T08:26:16.836Z,100949.47
2023-04-10T08:29:19.782Z,100939.44
2023-04-10T08:32:24.156Z,100938.37
2023-04-10T08:35:26.587Z,100937.41
2023-04-10T08:38:29.821Z,100929.31
2023-04-10T08:41:32.724Z,100928.59
2023-04-10T08:44:37.648Z,100932.16
2023-04-10T08:47:42.496Z,100933.84
2023-04-10T08:50:46.309Z,100925.00
2023-04-10T08:53:52.611Z,100917.38
2023-04-10T08:56:56.142Z,100920.22
2023-04-10T09:00:00.655Z,100930.47
2023-04-10T09:03:05.784Z,100929.59
2023-04-10T09:06:09.302Z,100921.06
2023-04-10T09:09:12.411Z,100924.03
2023-04-10T09:12:16.338Z,100928.56
2023-04-10T09:15:19.504Z,100915.22
2023-04-10T09:18:22.510Z,100916.78
2023-04-10T09:21:25.519Z,100903.56
2023-04-10T09:24:28.811Z,100911.94
2023-04-10T09:27:36.481Z,100906.88
2023-04-10T09:30:43.158Z,100903.22
2023-04-10T09:33:46.722Z,100907.16
2023-04-10T09:36:57.761Z,100899.62
2023-04-10T09:40:01.057Z,100902.44
2023-04-10T09:43:17.345Z,100897.00
2023-04-10T09:46:29.256Z,100890.59
2023-04-10T09:49:45.381Z,100885.63
2023-04-10T09:52:48.368Z,100904.69
2023-04-10T09:55:51.268Z,100892.25
2023-04-10T09:59:02.022Z,100882.62
2023-04-10T10:02:06.196Z,100873.00
2023-04-10T10:05:10.782Z,100875.34
2023-04-10T10:08:14.763Z,100876.19
2023-04-10T10:11:23.928Z,100866.94
2023-04-10T10:14:29.372Z,100885.13
2023-04-10T10:17:48.334Z,100871.50
2023-04-10T10:20:52.041Z,100863.66
2023-04-10T10:23:55.528Z,100863.53
2023-04-10T10:27:00.076Z,100858.16
2023-04-10T10:30:12.019Z,100865.44
2023-04-10T10:33:26.411Z,100859.81
2023-04-10T10:36:29.585Z,100851.09
2023-04-10T10:39:35.078Z,100853.66
2023-04-10T10:42:57.507Z,100849.66
2023-04-10T10:46:04.835Z,100845.91
2023-04-10T10:49:08.418Z,100849.25
2023-04-10T10:52:10.699Z,100858.09
2023-04-10T10:55:22.960Z,100844.53
2023-04-10T10:58:56.424Z,100844.41
2023-04-10T11:02:18.437Z,100845.34
2023-04-10T11:05:40.673Z,100846.31
2023-04-10T11:08:53.904Z,100836.16
2023-04-10T11:12:02.544Z,100850.59
2023-04-10T11:15:05.751Z,100846.59
2023-04-10T11:18:08.431Z,100843.28
2023-04-10T11:21:18.429Z,100832.50
2023-04-10T11:24:21.887Z,100832.00
2023-04-10T11:27:41.171Z,100837.44
2023-04-10T11:30:44.346Z,100839.06
2023-04-10T11:33:48.160Z,100832.66
2023-04-10T11:36:51.354Z,100822.31
2023-04-10T11:40:04.757Z,100831.28
2023-04-10T11:43:14.622Z,100827.81
2023-04-10T11:46:17.877Z,100833.75
2023-04-10T11:49:22.667Z,100828.59
2023-04-10T11:52:26.376Z,100832.00
2023-04-10T11:55:39.432Z,100833.13
2023-04-10T11:58:42.196Z,100834.09
2023-04-10T12:01:44.976Z,100829.25
2023-04-10T12:04:58.177Z,100829.69
2023-04-10T12:08:01.396Z,100834.00
2023-04-10T12:11:04.804Z,100831.53
2023-04-10T12:14:08.298Z,100824.06
2023-04-10T12:17:13.036Z,100829.13
2023-04-10T12:20:17.342Z,100819.87
2023-04-10T12:23:21.302Z,100817.13
2023-04-10T12:26:24.708Z,100811.22
2023-04-10T12:29:30.217Z,100815.09
2023-04-10T12:32:33.624Z,100801.69
2023-04-10T12:35:40.326Z,100795.44
2023-04-10T12:38:44.410Z,100794.56
2023-04-10T12:41:47.921Z,100789.81
2023-04-10T12:44:52.669Z,100784.81
2023-04-10T12:47:57.018Z,100781.38
2023-04-10T12:51:00.906Z,100766.16
2023-04-10T12:54:04.936Z,100760.69
2023-04-10T12:57:09.551Z,100753.81
2023-04-10T13:00:15.407Z,100750.28
2023-04-10T13:03:18.342Z,100741.56
2023-04-10T13:06:21.787Z,100736.59
2023-04-10T13:09:25.695Z,100734.84
2023-04-10T13:12:29.965Z,100737.75
2023-04-10T13:15:35.256Z,100735.22
2023-04-10T13:18:39.112Z,100720.62
2023-04-10T13:21:42.117Z,100729.22
2023-04-10T13:24:45.395Z,100718.59
2023-04-10T13:27:48.757Z,100710.59
2023-04-10T13:30:51.858Z,100709.09
2023-04-10T13:33:55.160Z,100700.50
2023-04-10T13:36:58.432Z,100703.44
2023-04-10T13:40:01.843Z,100695.13
2023-04-10T13:43:07.093Z,100687.03
2023-04-10T13:46:10.228Z,100679.06
2023-04-10T13:49:18.092Z,100667.22
2023-04-10T13:52:21.647Z,100664.63
2023-04-10T13:55:24.694Z,100666.47
2023-04-10T13:58:32.138Z,100669.31
2023-04-10T14:01:35.495Z,100659.59
2023-04-10T14:04:38.784Z,100658.53
2023-04-10T14:07:42.290Z,100646.63
2023-04-10T14:10:46.960Z,100642.03
2023-04-10T14:13:50.531Z,100635.94
2023-04-10T14:16:53.353Z,100637.31
2023-04-10T14:19:56.495Z,100629.44
2023-04-10T14:22:59.801Z,100617.22
2023-04-10T14:26:03.032Z,100619.31
2023-04-10T14:29:08.490Z,100615.69
2023-04-10T14:32:11.756Z,100609.00
2023-04-10T14:35:14.876Z,100601.97
2023-04-10T14:38:17.759Z,100594.00
2023-04-10T14:41:21.166Z,100592.69
2023-04-10T14:44:24.069Z,100596.66
2023-04-10T14:47:27.133Z,100583.94
2023-04-10T14:50:32.650Z,100590.63
2023-04-10T14:53:35.748Z,100579.94
2023-04-10T14:56:39.264Z,100582.25
2023-04-10T14:59:41.520Z,100583.38
2023-04-10T15:02:45.786Z,100573.50
2023-04-10T15:05:48.511Z,100570.66
2023-04-10T15:08:52.357Z,100569.91
2023-04-10T15:11:57.585Z,100563.56
2023-04-10T15:15:00.403Z,100563.41
2023-04-10T15:18:03.290Z,100556.91
2023-04-10T15:21:06.482Z,100557.28
2023-04-10T15:24:08.837Z,100545.66
2023-04-10T15:27:11.518Z,100546.31
2023-04-10T15:30:14.532Z,100538.22
2023-04-10T15:33:17.532Z,100538.22
2023-04-10T15:36:20.088Z,100531.66
2023-04-10T15:39:23.219Z,100530.16
2023-04-10T15:42:25.605Z,100531.16
2023-04-10T15:45:27.948Z,100530.47
2023-04-10T15:48:31.041Z,100533.09
2023-04-10T15:51:33.721Z,100531.03
2023-04-10T15:54:37.102Z,100523.56
2023-04-10T15:57:40.018Z,100527.28
2023-04-10T16:00:43.100Z,100516.31
2023-04-10T16:03:46.179Z,100519.22
2023-04-10T16:06:48.818Z,100523.09
2023-04-10T16:09:52.883Z,100513.41
2023-04-10T16:12:56.904Z,100504.94
2023-04-10T16:16:00.316Z,100505.69
2023-04-10T16:19:03.802Z,100502.75
2023-04-10T16:22:07.289Z,100504.69
2023-04-10T16:25:10.201Z,100496.94
2023-04-10T16:28:12.860Z,100495.84
2023-04-10T16:31:15.675Z,100488.09
2023-04-10T16:34:18.030Z,100495.03
2023-04-10T16:37:20.971Z,100482.69
2023-04-10T16:40:25.096Z,100488.22
2023-04-10T16:43:29.380Z,100485.16
2023-04-10T16:46:33.446Z,100489.50
2023-04-10T16:49:36.696Z,100491.88
2023-04-10T16:52:40.370Z,100494.06
2023-04-10T16:55:43.586Z,100489.06
2023-04-10T16:58:46.966Z,100482.53
2023-04-10T17:01:49.400Z,100497.22
2023-04-10T17:04:52.060Z,100481.44
2023-04-10T17:07:55.045Z,100480.16
2023-04-10T17:10:58.114Z,100474.59
2023-04-10T17:14:01.169Z,100475.78
2023-04-10T17:17:03.842Z,100479.19
2023-04-10T17:20:08.362Z,100476.28
2023-04-10T17:23:12.645Z,100478.91
2023-04-10T17:26:15.552Z,100480.50
2023-04-10T17:29:18.309Z,100479.09
2023-04-10T17:32:21.070Z,100475.66
2023-04-10T17:35:25.556Z,100478.66
2023-04-10T17:38:28.413Z,100481.66
2023-04-10T17:41:31.097Z,100481.81
2023-04-10T17:44:34.050Z,100478.84
2023-04-10T17:47:36.813Z,100481.28
2023-04-10T17:50:39.894Z,100487.16
2023-04-10T17:53:42.865Z,100479.44
2023-04-10T17:56:45.357Z,100489.56
2023-04-10T17:59:48.247Z,100493.38
2023-04-10T18:02:53.214Z,100497.81
2023-04-10T18:05:55.993Z,100506.75
2023-04-10T18:08:58.938Z,100498.53
2023-04-10T18:12:01.714Z,100501.63
2023-04-10T18:15:04.832Z,100507.06
2023-04-10T18:18:07.352Z,100512.41
2023-04-10T18:21:14.042Z,100505.37
2023-04-10T18:24:17.112Z,100507.63
2023-04-10T18:27:19.879Z,100507.53
2023-04-10T18:30:22.356Z,100508.03
2023-04-10T18:33:25.519Z,100512.59
2023-04-10T18:36:28.424Z,100514.69
2023-04-10T18:39:31.125Z,100504.38
2023-04-10T18:42:33.777Z,100504.59
2023-04-10T18:45:36.965Z,100510.19
2023-04-10T18:48:47.481Z,100510.81
2023-04-10T18:51:51.489Z,100512.84
2023-04-10T18:54:53.940Z,100508.81
2023-04-10T18:57:56.335Z,100502.13
2023-04-10T19:00:59.136Z,100519.16
2023-04-10T19:04:02.461Z,100528.44
2023-04-10T19:07:05.596Z,100530.94
2023-04-10T19:10:08.293Z,100540.94
2023-04-10T19:13:12.474Z,100536.66
2023-04-10T19:16:19.536Z,100534.88
2023-04-10T19:19:21.886Z,100545.09
2023-04-10T19:22:25.391Z,100550.44
2023-04-10T19:25:28.338Z,100549.69
2023-04-10T19:28:31.785Z,100542.44
2023-04-10T19:31:34.181Z,100537.59
2023-04-10T19:34:36.884Z,100535.13
2023-04-10T19:37:39.792Z,100533.88
2023-04-10T19:40:42.527Z,100528.87
2023-04-10T19:43:45.876Z,100531.50
2023-04-10T19:46:49.564Z,100529.47
2023-04-10T19:49:52.124Z,100526.13
2023-04-10T19:52:55.134Z,100528.56
2023-04-10T19:55:57.961Z,100519.78
2023-04-10T19:59:01.277Z,100514.94
2023-04-10T20:02:04.614Z,100515.25
2023-04-10T20:05:07.824Z,100513.91
2023-04-10T20:08:10.152Z,100510.59
2023-04-10T20:11:13.015Z,100507.09
2023-04-10T20:14:15.825Z,100503.53
2023-04-10T20:17:18.515Z,100498.97
2023-04-10T20:20:20.817Z,100498.44
2023-04-10T20:23:23.932Z,100500.00
2023-04-10T20:26:26.190Z,100497.47
2023-04-10T20:29:29.081Z,100497.59
2023-04-10T20:32:32.044Z,100494.25
2023-04-10T20:35:35.293Z,100490.41
2023-04-10T20:38:38.578Z,100489.25
2023-04-10T20:41:41.466Z,100494.25
2023-04-10T20:44:44.311Z,100493.56
2023-04-10T20:47:47.334Z,100485.19
2023-04-10T20:50:50.490Z,100483.19
2023-04-10T20:53:53.641Z,100476.00
2023-04-10T20:57:00.206Z,100469.53
2023-04-10T21:00:02.781Z,100469.31
2023-04-10T21:03:06.732Z,100474.72
2023-04-10T21:06:10.207Z,100473.78
2023-04-10T21:09:12.959Z,100471.03
2023-04-10T21:12:15.678Z,100472.38
2023-04-10T21:15:18.726Z,100469.25
2023-04-10T21:18:21.999Z,100465.47
2023-04-10T21:21:25.369Z,100471.37
2023-04-10T21:24:29.285Z,100469.44
2023-04-10T21:27:32.682Z,100460.44
2023-04-10T21:30:35.328Z,100461.88
2023-04-10T21:33:38.364Z,100464.78
2023-04-10T21:36:41.624Z,100466.00
2023-04-10T21:39:44.396Z,100455.88
2023-04-10T21:42:47.385Z,100452.03
2023-04-10T21:45:50.036Z,100458.19
2023-04-10T21:48:52.929Z,100456.69
2023-04-10T21:51:56.632Z,100448.88
2023-04-10T21:54:59.198Z,100450.50
2023-04-10T21:58:01.986Z,100448.09
2023-04-10T22:01:06.852Z,100436.84
2023-04-10T22:04:10.819Z,100433.25
2023-04-10T22:07:14.123Z,100435.56
2023-04-10T22:10:17.612Z,100435.19
2023-04-10T22:13:30.141Z,100430.06
2023-04-10T22:16:34.402Z,100430.91
2023-04-10T22:19:36.827Z,100426.09
2023-04-10T22:22:39.220Z,100421.81
2023-04-10T22:25:42.005Z,100416.16
2023-04-10T22:28:45.297Z,100426.00
2023-04-10T22:31:48.403Z,100419.59
2023-04-10T22:34:51.754Z,100418.00
2023-04-10T22:37:54.654Z,100413.84
2023-04-10T22:40:57.602Z,100417.72
2023-04-10T22:44:00.414Z,100415.75
2023-04-10T22:47:03.351Z,100413.16
2023-04-10T22:50:06.437Z,100402.31
2023-04-10T22:53:11.772Z,100401.75
2023-04-10T22:56:15.184Z,100400.06
2023-04-10T22:59:19.306Z,100398.59
2023-04-10T23:02:22.517Z,100402.09
2023-04-10T23:05:26.273Z,100398.78
2023-04-10T23:08:29.999Z,100400.63
2023-04-10T23:11:34.038Z,100395.50
2023-04-10T23:14:37.327Z,100395.69
2023-04-10T23:17:40.112Z,100393.19
2023-04-10T23:20:44.930Z,100388.34
2023-04-10T23:23:48.454Z,100388.63
2023-04-10T23:26:52.375Z,100399.03
2023-04-10T23:29:55.555Z,100396.84
2023-04-10T23:32:59.175Z,100397.78
2023-04-10T23:36:02.012Z,100389.78
2023-04-10T23:39:04.950Z,100391.75
2023-04-10T23:42:08.650Z,100385.16
2023-04-10T23:45:12.667Z,100376.72
2023-04-10T23:48:15.668Z,100375.13
2023-04-10T23:51:18.881Z,100375.13
2023-04-10T23:54:22.120Z,100374.38
2023-04-10T23:57:24.628Z,100377.34
